Peterlee, United Kingdom
Current Conditions -  °F | °C
As of 9:50 AM on Sunday 26 Oct 2014 (Local Time) from EGNV Reporting Station
Rain Showers Rain Showers  
Wind Chill: 55°   Ceiling: 2300
Heat Index: 55°   Visibility: 3mi
Dew Point: 48°   Wind: 21mph
Humidity: 77%   Direction: 200°SSW
Pressure: 29.88"   Gusts: NA
Location:  54.76°N, 1.33°W
Report Text: EGNV 260850Z 20018KT 5000 -SHRA FEW017 BKN023 13/09 Q1012
Loading
Personal Weather Stations






























Interactive Weather Map
Tropical Storm Tracking
New forecast layout! Learn more

10-Day Weather Forecast

Advertisements
Track Severe Weather on mobile